Time;durP1;ratioP1;P1;durP2;ratioP2;P2;SDS_P1;SDS_P2;PMS_P1;PMS_P2;Temp;Humidity;BMP_temperature;BMP_pressure;BME280_temperature;BME280_humidity;BME280_pressure;Samples;Min_cycle;Max_cycle;Signal;HPM_P1;HPM_P2
2022/05/21 00:00:27;;;;;;;4.05;1.80;;;;;;;;;;4858408;29;20041;-56
2022/05/21 00:02:53;;;;;;;3.53;1.80;;;;;;;;;;4858180;29;20475;-56
2022/05/21 00:05:21;;;;;;;5.88;1.88;;;;;;;;;;4858466;29;20029;-56
2022/05/21 00:07:47;;;;;;;5.10;1.75;;;;;;;;;;4858186;29;20057;-56
2022/05/21 00:10:14;;;;;;;3.88;1.88;;;;;;;;;;4858126;29;20090;-56
2022/05/21 00:12:41;;;;;;;3.97;1.83;;;;;;;;;;4858199;29;20030;-57
2022/05/21 00:15:08;;;;;;;3.92;1.80;;;;;;;;;;4849466;29;20045;-56
2022/05/21 00:17:34;;;;;;;4.15;1.70;;;;;;;;;;4876761;29;20093;-56
2022/05/21 00:20:00;;;;;;;5.38;3.40;;;;;;;;;;4876919;29;20804;-55
2022/05/21 00:22:27;;;;;;;8.27;2.47;;;;;;;;;;4876797;29;20117;-55
2022/05/21 00:24:53;;;;;;;5.25;2.00;;;;;;;;;;4877533;29;20103;-55
2022/05/21 00:27:19;;;;;;;6.07;2.10;;;;;;;;;;4880449;29;20100;-55
2022/05/21 00:29:45;;;;;;;3.90;2.55;;;;;;;;;;4880167;29;20450;-55
2022/05/21 00:32:11;;;;;;;6.32;2.30;;;;;;;;;;4880354;29;20040;-56
2022/05/21 00:34:38;;;;;;;5.25;2.42;;;;;;;;;;4863228;29;20497;-58
2022/05/21 00:37:04;;;;;;;8.70;3.97;;;;;;;;;;4880233;29;20516;-58
2022/05/21 00:39:30;;;;;;;7.50;5.28;;;;;;;;;;4880102;29;20060;-57
2022/05/21 00:41:56;;;;;;;4.63;2.42;;;;;;;;;;4880224;29;20033;-58
2022/05/21 00:44:22;;;;;;;8.02;2.78;;;;;;;;;;4880079;29;20033;-58
2022/05/21 00:46:49;;;;;;;4.68;3.03;;;;;;;;;;4879893;29;20029;-56
2022/05/21 00:49:17;;;;;;;5.68;3.00;;;;;;;;;;4880108;29;20433;-55
2022/05/21 00:51:51;;;;;;;5.85;2.88;;;;;;;;;;4879766;29;20052;-56
2022/05/21 00:54:18;;;;;;;3.95;2.33;;;;;;;;;;4880116;29;20025;-55
2022/05/21 00:56:51;;;;;;;7.88;3.22;;;;;;;;;;4880017;29;20053;-55
2022/05/21 01:02:03;;;;;;;4.20;2.40;;;;;;;;;;4880119;29;20096;-56
2022/05/21 01:04:31;;;;;;;5.10;2.60;;;;;;;;;;4879804;29;20085;-55
2022/05/21 01:06:57;;;;;;;4.88;2.80;;;;;;;;;;4879726;29;20034;-56
2022/05/21 01:09:23;;;;;;;3.15;2.03;;;;;;;;;;4879508;29;20029;-55
2022/05/21 01:11:49;;;;;;;5.80;2.63;;;;;;;;;;4879683;29;20286;-55
2022/05/21 01:14:20;;;;;;;4.00;2.15;;;;;;;;;;4879282;29;20180;-55
2022/05/21 01:16:46;;;;;;;4.18;2.20;;;;;;;;;;4879767;29;20053;-57
2022/05/21 01:19:13;;;;;;;5.18;2.25;;;;;;;;;;4879695;29;20037;-56
2022/05/21 01:21:39;;;;;;;6.45;2.33;;;;;;;;;;4879746;29;20068;-55
2022/05/21 01:24:06;;;;;;;4.03;2.20;;;;;;;;;;4879327;29;20116;-55
2022/05/21 01:26:33;;;;;;;3.97;1.90;;;;;;;;;;4879240;29;20033;-55
2022/05/21 01:29:00;;;;;;;3.90;2.28;;;;;;;;;;4879228;29;20029;-55
2022/05/21 01:31:26;;;;;;;7.60;2.10;;;;;;;;;;4879166;29;20045;-55
2022/05/21 01:33:52;;;;;;;5.88;2.42;;;;;;;;;;4879433;29;20379;-55
2022/05/21 01:36:18;;;;;;;3.85;2.10;;;;;;;;;;4878771;29;20048;-55
2022/05/21 01:38:45;;;;;;;4.43;2.40;;;;;;;;;;4878665;29;20441;-55
2022/05/21 01:41:12;;;;;;;4.70;2.15;;;;;;;;;;4878611;29;20025;-56
2022/05/21 01:46:23;;;;;;;4.60;2.22;;;;;;;;;;4878623;29;20044;-56
2022/05/21 01:48:50;;;;;;;5.22;2.50;;;;;;;;;;4878717;29;20029;-56
2022/05/21 01:51:16;;;;;;;5.97;2.47;;;;;;;;;;4878491;29;20073;-56
2022/05/21 01:53:43;;;;;;;5.15;2.53;;;;;;;;;;4878498;29;20026;-56
2022/05/21 01:56:10;;;;;;;7.82;2.60;;;;;;;;;;4878608;29;20368;-56
2022/05/21 01:58:36;;;;;;;4.18;2.20;;;;;;;;;;4878779;29;20033;-56
2022/05/21 02:01:03;;;;;;;7.47;2.50;;;;;;;;;;4878961;29;20117;-56
2022/05/21 02:03:29;;;;;;;6.80;2.60;;;;;;;;;;4880562;29;20056;-56
2022/05/21 02:05:55;;;;;;;5.05;2.50;;;;;;;;;;4880488;29;20033;-56
2022/05/21 02:08:21;;;;;;;4.53;2.40;;;;;;;;;;4878580;29;20533;-56
2022/05/21 02:10:47;;;;;;;4.63;2.58;;;;;;;;;;4878558;29;20136;-56
2022/05/21 02:13:19;;;;;;;8.23;2.97;;;;;;;;;;4878618;29;20438;-55
2022/05/21 02:15:45;;;;;;;5.05;2.78;;;;;;;;;;4878463;29;20061;-55
2022/05/21 02:18:11;;;;;;;7.82;2.92;;;;;;;;;;4878465;29;20056;-55
2022/05/21 02:20:38;;;;;;;7.20;3.08;;;;;;;;;;4878563;29;20033;-55
2022/05/21 02:23:04;;;;;;;7.53;3.20;;;;;;;;;;4878553;29;20108;-55
2022/05/21 02:25:30;;;;;;;6.47;2.90;;;;;;;;;;4878248;29;20105;-55
2022/05/21 02:27:56;;;;;;;6.28;2.70;;;;;;;;;;4878373;29;20109;-56
2022/05/21 02:30:22;;;;;;;4.65;2.58;;;;;;;;;;4878296;29;20033;-55
2022/05/21 02:32:49;;;;;;;8.02;2.90;;;;;;;;;;4878540;29;20040;-55
2022/05/21 02:35:15;;;;;;;7.43;2.63;;;;;;;;;;4877981;29;20033;-55
2022/05/21 02:40:26;;;;;;;7.78;2.20;;;;;;;;;;4878240;29;20079;-55
2022/05/21 02:42:54;;;;;;;4.78;2.80;;;;;;;;;;4878121;29;20021;-56
2022/05/21 02:45:25;;;;;;;5.25;2.67;;;;;;;;;;4878446;29;20074;-56
2022/05/21 02:47:51;;;;;;;5.50;2.65;;;;;;;;;;4877238;29;20047;-56
2022/05/21 02:50:19;;;;;;;7.28;2.58;;;;;;;;;;4878078;29;20033;-56
2022/05/21 02:52:45;;;;;;;5.03;2.45;;;;;;;;;;4877399;29;20115;-56
2022/05/21 02:55:12;;;;;;;6.80;2.53;;;;;;;;;;4877710;29;20036;-56
2022/05/21 02:57:39;;;;;;;7.97;3.03;;;;;;;;;;4877713;29;20029;-55
2022/05/21 03:00:06;;;;;;;4.93;2.83;;;;;;;;;;4877749;29;20029;-56
2022/05/21 03:02:33;;;;;;;8.07;3.38;;;;;;;;;;4877681;29;20035;-56
2022/05/21 03:04:59;;;;;;;4.90;2.83;;;;;;;;;;4877493;29;20036;-56
2022/05/21 03:07:25;;;;;;;7.97;3.35;;;;;;;;;;4877317;29;20036;-56
2022/05/21 03:12:36;;;;;;;7.25;3.00;;;;;;;;;;4877402;29;20048;-56
2022/05/21 03:15:02;;;;;;;9.35;3.40;;;;;;;;;;4877108;29;20507;-56
2022/05/21 03:17:28;;;;;;;8.10;3.15;;;;;;;;;;4877218;29;20033;-56
2022/05/21 03:19:54;;;;;;;8.80;3.63;;;;;;;;;;4877662;29;20449;-55
2022/05/21 03:22:21;;;;;;;9.98;3.10;;;;;;;;;;4876980;29;20040;-55
2022/05/21 03:24:47;;;;;;;5.68;3.10;;;;;;;;;;4877294;29;20063;-56
2022/05/21 03:27:13;;;;;;;7.20;3.28;;;;;;;;;;4877198;29;20029;-56
2022/05/21 03:29:39;;;;;;;8.90;2.90;;;;;;;;;;4877306;29;20029;-55
2022/05/21 03:32:07;;;;;;;7.18;3.25;;;;;;;;;;4877126;29;20378;-56
2022/05/21 03:34:33;;;;;;;7.30;3.15;;;;;;;;;;4877087;29;20482;-56
2022/05/21 03:36:59;;;;;;;5.43;3.33;;;;;;;;;;4877400;29;20446;-60
2022/05/21 03:39:25;;;;;;;7.85;3.05;;;;;;;;;;4877291;29;20052;-56
2022/05/21 03:41:51;;;;;;;8.98;3.50;;;;;;;;;;4877201;29;20033;-56
2022/05/21 03:44:17;;;;;;;8.05;3.20;;;;;;;;;;4877242;29;20051;-57
2022/05/21 03:46:43;;;;;;;10.07;3.95;;;;;;;;;;4877356;29;20116;-56
2022/05/21 03:49:09;;;;;;;9.60;3.45;;;;;;;;;;4877336;29;20048;-56
2022/05/21 03:51:37;;;;;;;10.05;3.80;;;;;;;;;;4877675;29;20064;-56
2022/05/21 03:54:03;;;;;;;9.10;3.20;;;;;;;;;;4876992;29;20105;-56
2022/05/21 03:56:29;;;;;;;8.07;5.30;;;;;;;;;;4877415;29;20108;-56
2022/05/21 03:58:55;;;;;;;11.48;4.90;;;;;;;;;;4877991;29;20532;-56
2022/05/21 04:01:21;;;;;;;8.85;4.22;;;;;;;;;;4881190;29;20406;-56
2022/05/21 04:03:50;;;;;;;8.20;3.70;;;;;;;;;;4880999;29;20021;-56
2022/05/21 04:06:16;;;;;;;19.25;3.60;;;;;;;;;;4880987;29;20037;-57
2022/05/21 04:08:42;;;;;;;7.53;3.60;;;;;;;;;;4880866;29;20164;-56
2022/05/21 04:11:08;;;;;;;7.30;3.72;;;;;;;;;;4880628;29;20040;-57
2022/05/21 04:13:34;;;;;;;8.35;3.53;;;;;;;;;;4880775;29;20104;-56
2022/05/21 04:16:00;;;;;;;10.63;4.15;;;;;;;;;;4880520;29;20057;-56
2022/05/21 04:18:26;;;;;;;7.63;3.90;;;;;;;;;;4880851;29;20108;-56
2022/05/21 04:20:52;;;;;;;4.45;3.00;;;;;;;;;;4880608;29;20032;-56
2022/05/21 04:23:18;;;;;;;7.60;3.00;;;;;;;;;;4880454;29;20040;-56
2022/05/21 04:25:46;;;;;;;6.65;2.95;;;;;;;;;;4880623;29;20029;-56
2022/05/21 04:28:12;;;;;;;5.88;3.30;;;;;;;;;;4880276;29;20044;-56
2022/05/21 04:30:39;;;;;;;7.85;3.33;;;;;;;;;;4880475;29;20097;-56
2022/05/21 04:33:05;;;;;;;4.63;2.88;;;;;;;;;;4880438;29;20032;-56
2022/05/21 04:38:17;;;;;;;8.32;2.80;;;;;;;;;;4880404;29;20040;-56
2022/05/21 04:40:43;;;;;;;7.80;3.30;;;;;;;;;;4880223;29;20089;-57
2022/05/21 04:43:09;;;;;;;7.00;3.10;;;;;;;;;;4880088;29;20112;-56
2022/05/21 04:45:36;;;;;;;6.45;2.90;;;;;;;;;;4879915;29;20045;-56
2022/05/21 04:48:06;;;;;;;6.78;3.30;;;;;;;;;;4879656;29;20433;-56
2022/05/21 04:50:34;;;;;;;7.57;3.00;;;;;;;;;;4880074;29;20045;-56
2022/05/21 04:53:00;;;;;;;7.85;3.28;;;;;;;;;;4879715;29;20030;-56
2022/05/21 04:55:26;;;;;;;4.95;2.85;;;;;;;;;;4879940;29;20043;-56
2022/05/21 04:57:52;;;;;;;9.32;3.63;;;;;;;;;;4879675;29;20116;-56
2022/05/21 05:00:18;;;;;;;10.13;3.80;;;;;;;;;;4880016;29;20033;-56
2022/05/21 05:02:45;;;;;;;7.53;3.50;;;;;;;;;;4879846;29;20029;-56
2022/05/21 05:05:11;;;;;;;6.80;3.72;;;;;;;;;;4879659;29;20032;-56
2022/05/21 05:07:38;;;;;;;10.65;4.03;;;;;;;;;;4879927;29;20037;-56
2022/05/21 05:10:04;;;;;;;10.07;4.07;;;;;;;;;;4879297;29;20172;-56
2022/05/21 05:12:32;;;;;;;11.68;3.70;;;;;;;;;;4879316;29;20096;-56
2022/05/21 05:14:58;;;;;;;8.50;3.55;;;;;;;;;;4879303;29;20045;-56
2022/05/21 05:17:24;;;;;;;14.07;4.28;;;;;;;;;;4879380;29;20040;-57
2022/05/21 05:19:51;;;;;;;9.98;3.90;;;;;;;;;;4879246;29;20375;-56
2022/05/21 05:22:17;;;;;;;16.33;5.03;;;;;;;;;;4879568;29;20385;-57
2022/05/21 05:24:43;;;;;;;19.67;5.30;;;;;;;;;;4879533;29;20036;-57
2022/05/21 05:27:09;;;;;;;14.90;4.88;;;;;;;;;;4879446;29;20033;-57
2022/05/21 05:29:35;;;;;;;13.93;4.53;;;;;;;;;;4879344;29;20093;-56
2022/05/21 05:32:02;;;;;;;15.52;4.57;;;;;;;;;;4879869;29;20043;-56
2022/05/21 05:34:28;;;;;;;14.25;4.82;;;;;;;;;;4879195;29;20029;-59
2022/05/21 05:36:54;;;;;;;12.60;4.18;;;;;;;;;;4879758;29;20032;-56
2022/05/21 05:39:21;;;;;;;12.43;4.47;;;;;;;;;;4879257;29;20088;-57
2022/05/21 05:41:47;;;;;;;12.95;4.00;;;;;;;;;;4879039;29;20037;-60
2022/05/21 05:44:13;;;;;;;13.48;4.18;;;;;;;;;;4879403;29;20041;-57
2022/05/21 05:46:40;;;;;;;9.85;3.70;;;;;;;;;;4878955;29;20052;-56
2022/05/21 05:49:06;;;;;;;10.38;3.20;;;;;;;;;;4879156;29;20422;-56
2022/05/21 05:51:32;;;;;;;10.10;3.60;;;;;;;;;;4878955;29;20549;-56
2022/05/21 05:53:59;;;;;;;11.63;3.53;;;;;;;;;;4878754;29;20060;-55
2022/05/21 05:56:25;;;;;;;7.32;3.05;;;;;;;;;;4879214;29;20021;-56
2022/05/21 06:01:36;;;;;;;8.25;3.60;;;;;;;;;;4878531;29;20096;-56
2022/05/21 06:04:02;;;;;;;8.27;3.40;;;;;;;;;;4878411;29;20033;-56
2022/05/21 06:06:28;;;;;;;9.23;3.03;;;;;;;;;;4878383;29;20037;-56
2022/05/21 06:08:54;;;;;;;11.15;3.25;;;;;;;;;;4878405;29;20025;-61
2022/05/21 06:11:20;;;;;;;6.80;3.53;;;;;;;;;;4878303;29;20072;-56
2022/05/21 06:13:46;;;;;;;8.80;3.25;;;;;;;;;;4878022;29;20458;-56
2022/05/21 06:16:15;;;;;;;8.27;3.47;;;;;;;;;;4877250;29;20123;-56
2022/05/21 06:18:41;;;;;;;9.25;3.47;;;;;;;;;;4877367;29;20041;-56
2022/05/21 06:21:08;;;;;;;11.45;4.55;;;;;;;;;;4877602;29;20470;-56
2022/05/21 06:23:34;;;;;;;7.10;3.25;;;;;;;;;;4876377;29;20104;-57
2022/05/21 06:26:01;;;;;;;9.20;3.30;;;;;;;;;;4877438;29;20033;-55
2022/05/21 06:28:29;;;;;;;12.10;5.10;;;;;;;;;;4877153;29;20037;-58
2022/05/21 06:30:56;;;;;;;17.23;4.47;;;;;;;;;;4859849;29;20457;-58
2022/05/21 06:33:24;;;;;;;10.57;5.30;;;;;;;;;;4873534;29;20033;-58
2022/05/21 06:35:51;;;;;;;14.88;8.18;;;;;;;;;;4861840;29;20032;-61
2022/05/21 06:38:17;;;;;;;22.13;7.32;;;;;;;;;;4877278;29;20116;-60
2022/05/21 06:40:43;;;;;;;7.00;3.33;;;;;;;;;;4868257;29;20112;-59
2022/05/21 06:43:09;;;;;;;6.03;3.10;;;;;;;;;;4858668;29;20479;-59
2022/05/21 06:45:36;;;;;;;10.05;4.05;;;;;;;;;;4858730;29;20037;-60
2022/05/21 06:48:06;;;;;;;9.27;3.28;;;;;;;;;;4858484;29;20045;-59
2022/05/21 06:50:33;;;;;;;10.75;3.47;;;;;;;;;;4858519;29;20029;-59
2022/05/21 06:52:59;;;;;;;8.52;4.40;;;;;;;;;;4858672;29;20032;-58
2022/05/21 06:55:25;;;;;;;11.35;3.63;;;;;;;;;;4858353;29;20034;-66
2022/05/21 06:57:51;;;;;;;8.95;3.28;;;;;;;;;;4858545;29;20040;-59
2022/05/21 07:00:19;;;;;;;11.40;3.78;;;;;;;;;;4858604;29;20101;-60
2022/05/21 07:02:45;;;;;;;10.82;4.15;;;;;;;;;;4857972;29;20133;-64
2022/05/21 07:07:56;;;;;;;9.13;4.22;;;;;;;;;;4858144;29;20060;-65
2022/05/21 07:10:23;;;;;;;9.40;3.83;;;;;;;;;;4857801;29;20048;-63
2022/05/21 07:12:49;;;;;;;8.15;4.10;;;;;;;;;;4857806;29;20029;-60
2022/05/21 07:15:17;;;;;;;8.65;3.80;;;;;;;;;;4816049;29;1253798;-60
2022/05/21 07:17:45;;;;;;;11.00;4.68;;;;;;;;;;4858547;29;20483;-67
2022/05/21 07:20:15;;;;;;;10.20;4.25;;;;;;;;;;4858724;29;20033;-59
2022/05/21 07:22:44;;;;;;;8.60;4.47;;;;;;;;;;4858515;29;20038;-59
2022/05/21 07:25:12;;;;;;;14.65;4.43;;;;;;;;;;4858596;29;20021;-59
2022/05/21 07:27:39;;;;;;;9.32;3.85;;;;;;;;;;4858739;29;20411;-59
2022/05/21 07:30:05;;;;;;;9.93;3.78;;;;;;;;;;4858380;29;20551;-61
2022/05/21 07:32:31;;;;;;;7.70;3.60;;;;;;;;;;4858488;29;20041;-61
2022/05/21 07:35:02;;;;;;;8.88;4.13;;;;;;;;;;4858504;29;20122;-60
2022/05/21 07:37:28;;;;;;;12.30;3.72;;;;;;;;;;4858674;29;20034;-62
2022/05/21 07:39:55;;;;;;;6.95;3.30;;;;;;;;;;4858817;29;20419;-61
2022/05/21 07:42:21;;;;;;;10.27;3.50;;;;;;;;;;4858432;29;20387;-60
2022/05/21 07:44:47;;;;;;;8.15;3.78;;;;;;;;;;4858736;29;20037;-60
2022/05/21 07:47:13;;;;;;;7.65;3.50;;;;;;;;;;4858656;29;20992;-73
2022/05/21 07:49:39;;;;;;;9.75;3.33;;;;;;;;;;4858523;29;20052;-70
2022/05/21 07:52:05;;;;;;;10.15;3.08;;;;;;;;;;4858476;29;20572;-68
2022/05/21 07:54:32;;;;;;;8.68;3.55;;;;;;;;;;4858305;29;20042;-61
2022/05/21 07:56:59;;;;;;;6.45;3.47;;;;;;;;;;4861498;29;20062;-67
2022/05/21 07:59:25;;;;;;;8.95;4.32;;;;;;;;;;4866217;29;20037;-59
2022/05/21 08:01:51;;;;;;;6.95;3.83;;;;;;;;;;4867304;29;20478;-59
2022/05/21 08:04:17;;;;;;;6.88;3.38;;;;;;;;;;4865716;29;20122;-62
2022/05/21 08:06:44;;;;;;;7.82;3.42;;;;;;;;;;4873083;29;20025;-60
2022/05/21 08:09:10;;;;;;;9.10;3.25;;;;;;;;;;4868448;29;20486;-63
2022/05/21 08:11:37;;;;;;;6.30;3.88;;;;;;;;;;4877168;29;20049;-60
2022/05/21 08:14:04;;;;;;;6.40;3.13;;;;;;;;;;4868986;29;20017;-61
2022/05/21 08:16:30;;;;;;;7.13;3.33;;;;;;;;;;4870623;29;20049;-62
2022/05/21 08:18:56;;;;;;;8.32;3.55;;;;;;;;;;4866245;29;20021;-61
2022/05/21 08:21:22;;;;;;;7.05;3.65;;;;;;;;;;4866211;29;20394;-60
2022/05/21 08:29:18;;;;;;;8.02;3.83;;;;;;;;;;4859552;29;20121;-63
2022/05/21 08:31:44;;;;;;;8.10;3.53;;;;;;;;;;4861451;29;20069;-59
2022/05/21 08:34:10;;;;;;;7.97;3.90;;;;;;;;;;4865112;29;20037;-60
2022/05/21 08:36:36;;;;;;;8.95;4.10;;;;;;;;;;4866478;29;20157;-57
2022/05/21 08:39:03;;;;;;;5.88;3.47;;;;;;;;;;4859924;29;20485;-62
2022/05/21 08:41:31;;;;;;;11.57;4.05;;;;;;;;;;4857121;29;20045;-58
2022/05/21 08:44:08;;;;;;;7.93;3.63;;;;;;;;;;4857718;29;20402;-62
2022/05/21 08:46:35;;;;;;;7.47;3.60;;;;;;;;;;4859881;29;20504;-64
2022/05/21 08:49:06;;;;;;;9.20;3.67;;;;;;;;;;4861450;29;20025;-59
2022/05/21 08:51:35;;;;;;;12.07;3.90;;;;;;;;;;4861230;29;20042;-59
2022/05/21 08:54:03;;;;;;;13.90;4.22;;;;;;;;;;4863181;29;20029;-58
2022/05/21 08:56:29;;;;;;;9.82;3.67;;;;;;;;;;4863579;29;20065;-60
2022/05/21 08:59:06;;;;;;;12.00;3.78;;;;;;;;;;4862751;29;20040;-59
2022/05/21 09:01:34;;;;;;;9.40;4.00;;;;;;;;;;4875134;29;20157;-60
2022/05/21 09:04:00;;;;;;;13.27;4.35;;;;;;;;;;4850410;29;20370;-61
2022/05/21 09:06:33;;;;;;;16.05;4.57;;;;;;;;;;4873828;29;20513;-60
2022/05/21 09:08:59;;;;;;;16.15;4.60;;;;;;;;;;4861658;29;20033;-59
2022/05/21 09:11:34;;;;;;;21.23;4.45;;;;;;;;;;4863006;29;20046;-60
2022/05/21 09:14:11;;;;;;;26.10;4.53;;;;;;;;;;4863137;29;20034;-59
2022/05/21 09:16:56;;;;;;;9.07;4.30;;;;;;;;;;4865050;29;20097;-60
2022/05/21 09:19:34;;;;;;;12.07;4.10;;;;;;;;;;4871787;29;20133;-61
2022/05/21 09:22:02;;;;;;;11.13;4.20;;;;;;;;;;4868041;29;20030;-60
2022/05/21 09:24:33;;;;;;;11.48;5.05;;;;;;;;;;4860839;29;20063;-61
2022/05/21 09:26:59;;;;;;;9.80;4.10;;;;;;;;;;4860929;29;20439;-65
2022/05/21 09:29:28;;;;;;;8.10;4.20;;;;;;;;;;4864261;29;20033;-68
2022/05/21 09:31:57;;;;;;;12.05;4.47;;;;;;;;;;4860782;29;20038;-67
2022/05/21 09:34:31;;;;;;;14.57;4.88;;;;;;;;;;4860526;29;20105;-59
2022/05/21 09:36:58;;;;;;;12.68;4.18;;;;;;;;;;4859862;29;20345;-59
2022/05/21 09:39:40;;;;;;;25.48;5.25;;;;;;;;;;4859639;29;20056;-70
2022/05/21 09:45:21;;;;;;;20.45;5.07;;;;;;;;;;4859640;29;20025;-61
2022/05/21 09:47:46;;;;;;;10.32;4.40;;;;;;;;;;4867688;29;20428;-62
2022/05/21 09:50:12;;;;;;;15.27;4.15;;;;;;;;;;4877770;29;20481;-67
2022/05/21 09:52:38;;;;;;;11.10;4.53;;;;;;;;;;4874690;29;20094;-67
2022/05/21 09:55:05;;;;;;;11.52;4.18;;;;;;;;;;4878046;29;20028;-62
2022/05/21 09:57:37;;;;;;;11.50;4.15;;;;;;;;;;4878107;29;20485;-65
2022/05/21 10:00:04;;;;;;;;;;;;;;;;;;4879210;29;20085;-62
2022/05/21 10:02:38;;;;;;;8.50;4.00;;;;;;;;;;4878281;29;19946;-61
2022/05/21 10:05:04;;;;;;;9.63;3.88;;;;;;;;;;4878572;29;20069;-62
2022/05/21 10:13:09;;;;;;;9.30;4.15;;;;;;;;;;4867751;29;20189;-61
2022/05/21 10:15:40;;;;;;;10.30;4.68;;;;;;;;;;4869974;29;20100;-62
2022/05/21 10:18:26;;;;;;;9.33;4.50;;;;;;;;;;4859461;29;20451;-61
2022/05/21 10:20:54;;;;;;;7.18;3.75;;;;;;;;;;4859491;29;20038;-63
2022/05/21 10:23:53;;;;;;;7.72;4.03;;;;;;;;;;4870910;29;20025;-62
2022/05/21 10:26:24;;;;;;;7.00;3.88;;;;;;;;;;4769863;30;20089;-63
2022/05/21 10:28:50;;;;;;;6.75;3.75;;;;;;;;;;4783158;30;20489;-62
2022/05/21 10:31:16;;;;;;;13.32;4.30;;;;;;;;;;4783316;30;20061;-65
2022/05/21 10:33:53;;;;;;;6.32;3.92;;;;;;;;;;4783132;30;20035;-62
2022/05/21 10:36:27;;;;;;;6.00;3.88;;;;;;;;;;4784656;29;20039;-63
2022/05/21 10:38:56;;;;;;;7.30;4.00;;;;;;;;;;4793005;29;20058;-63
2022/05/21 10:41:42;;;;;;;6.30;3.40;;;;;;;;;;4783039;30;20118;-64
2022/05/21 10:44:23;;;;;;;5.90;3.33;;;;;;;;;;4782734;30;20432;-64
2022/05/21 10:47:09;;;;;;;6.68;3.53;;;;;;;;;;4783306;30;20040;-62
2022/05/21 10:49:57;;;;;;;5.55;3.60;;;;;;;;;;4728615;30;20076;-62
2022/05/21 10:52:34;;;;;;;5.13;3.63;;;;;;;;;;4730813;30;20089;-60
2022/05/21 10:55:12;;;;;;;7.75;3.90;;;;;;;;;;4730370;30;20374;-62
2022/05/21 10:57:54;;;;;;;6.47;3.55;;;;;;;;;;4730299;30;20043;-61
2022/05/21 11:00:50;;;;;;;7.35;3.75;;;;;;;;;;4730344;30;20771;-61
2022/05/21 11:03:25;;;;;;;6.45;3.67;;;;;;;;;;4749737;30;20074;-63
2022/05/21 11:05:57;;;;;;;6.68;3.72;;;;;;;;;;4765280;30;20524;-61
2022/05/21 11:08:23;;;;;;;;;;;;;;;;;;4765069;30;20050;-64
2022/05/21 11:10:49;;;;;;;10.77;3.80;;;;;;;;;;4765052;30;19921;-64
2022/05/21 11:13:23;;;;;;;6.68;3.58;;;;;;;;;;4765001;30;20044;-61
2022/05/21 11:15:56;;;;;;;10.90;4.18;;;;;;;;;;4765327;30;20063;-63
2022/05/21 11:18:54;;;;;;;15.18;3.80;;;;;;;;;;4765874;30;20458;-61
2022/05/21 11:21:31;;;;;;;7.00;4.20;;;;;;;;;;4730301;30;20535;-62
2022/05/21 11:23:59;;;;;;;6.93;4.60;;;;;;;;;;4728947;30;20494;-68
2022/05/21 11:26:57;;;;;;;7.85;4.18;;;;;;;;;;4743808;30;20130;-62
2022/05/21 11:29:29;;;;;;;10.65;4.65;;;;;;;;;;4747727;30;20061;-64
2022/05/21 11:37:34;;;;;;;12.07;4.60;;;;;;;;;;4748132;30;20043;-63
2022/05/21 11:40:01;;;;;;;11.25;4.95;;;;;;;;;;4747249;30;20055;-62
2022/05/21 11:42:28;;;;;;;10.70;4.85;;;;;;;;;;4746776;30;20063;-62
2022/05/21 11:44:55;;;;;;;6.28;4.45;;;;;;;;;;4747554;30;20109;-62
2022/05/21 11:47:21;;;;;;;8.57;4.90;;;;;;;;;;4747440;30;20429;-62
2022/05/21 11:49:47;;;;;;;8.65;4.90;;;;;;;;;;4747721;29;20397;-68
2022/05/21 11:52:28;;;;;;;7.18;4.22;;;;;;;;;;4747215;30;20184;-62
2022/05/21 11:54:54;;;;;;;8.52;4.78;;;;;;;;;;4747105;30;20040;-66
2022/05/21 11:57:40;;;;;;;16.15;6.18;;;;;;;;;;4783011;29;20113;-63
2022/05/21 12:00:17;;;;;;;15.95;6.15;;;;;;;;;;4801244;29;20121;-61
2022/05/21 12:02:58;;;;;;;13.77;5.85;;;;;;;;;;4801291;29;20630;-62
2022/05/21 12:05:49;;;;;;;19.10;7.43;;;;;;;;;;4839180;29;20069;-61
2022/05/21 12:08:20;;;;;;;14.93;5.45;;;;;;;;;;4858493;29;20037;-65
2022/05/21 12:11:06;;;;;;;13.45;5.40;;;;;;;;;;4858263;29;20086;-63
2022/05/21 12:13:35;;;;;;;8.75;5.22;;;;;;;;;;4857116;29;20041;-63
2022/05/21 12:16:01;;;;;;;16.35;5.93;;;;;;;;;;4857549;29;20058;-62
2022/05/21 12:18:37;;;;;;;11.95;5.60;;;;;;;;;;4858299;29;20059;-63
2022/05/21 12:21:06;;;;;;;8.75;4.35;;;;;;;;;;4860681;29;20021;-62
2022/05/21 12:23:32;;;;;;;11.40;4.93;;;;;;;;;;4861312;29;20040;-62
2022/05/21 12:26:13;;;;;;;12.82;6.22;;;;;;;;;;4861831;29;20037;-61
2022/05/21 12:28:57;;;;;;;8.90;5.85;;;;;;;;;;4861451;29;20029;-62
2022/05/21 12:31:25;;;;;;;6.22;3.85;;;;;;;;;;4861049;29;20129;-61
2022/05/21 12:33:51;;;;;;;9.82;4.78;;;;;;;;;;4861555;29;20068;-63
2022/05/21 12:36:40;;;;;;;8.43;4.45;;;;;;;;;;4861605;29;20514;-62
2022/05/21 12:39:08;;;;;;;13.25;4.93;;;;;;;;;;4863016;29;20113;-61
2022/05/21 12:41:37;;;;;;;11.73;3.90;;;;;;;;;;4860896;29;20030;-61
2022/05/21 12:44:03;;;;;;;10.48;4.10;;;;;;;;;;4873292;29;20048;-63
2022/05/21 12:46:32;;;;;;;6.93;3.75;;;;;;;;;;4876648;29;20036;-62
2022/05/21 12:48:59;;;;;;;7.72;4.30;;;;;;;;;;4863735;29;20037;-64
2022/05/21 12:51:25;;;;;;;7.18;4.07;;;;;;;;;;4874462;29;20070;-61
2022/05/21 12:53:51;;;;;;;11.05;4.28;;;;;;;;;;4874232;29;20144;-62
2022/05/21 12:56:29;;;;;;;6.80;4.25;;;;;;;;;;4868717;29;20022;-62
2022/05/21 12:59:03;;;;;;;8.60;4.20;;;;;;;;;;4860410;29;20022;-63
2022/05/21 13:01:30;;;;;;;10.75;4.43;;;;;;;;;;4870163;29;20025;-63
2022/05/21 13:03:58;;;;;;;8.45;4.28;;;;;;;;;;4877146;29;20053;-63
2022/05/21 13:06:26;;;;;;;9.23;4.43;;;;;;;;;;4863222;29;20037;-66
2022/05/21 13:08:53;;;;;;;11.70;5.78;;;;;;;;;;4860496;29;20485;-65
2022/05/21 13:11:23;;;;;;;11.30;5.60;;;;;;;;;;4860789;29;20124;-67
2022/05/21 13:13:57;;;;;;;7.05;4.30;;;;;;;;;;4860877;29;20041;-65
2022/05/21 13:16:24;;;;;;;8.68;4.35;;;;;;;;;;4860252;29;20060;-61
2022/05/21 13:18:52;;;;;;;9.25;4.40;;;;;;;;;;4860363;29;20080;-62
2022/05/21 13:21:19;;;;;;;10.30;4.82;;;;;;;;;;4860003;29;20025;-65
2022/05/21 13:24:03;;;;;;;9.73;4.20;;;;;;;;;;4859101;29;20521;-62
2022/05/21 13:26:31;;;;;;;6.95;3.63;;;;;;;;;;4860108;29;20139;-62
2022/05/21 13:29:12;;;;;;;9.07;4.15;;;;;;;;;;4843367;29;20503;-64
2022/05/21 13:31:38;;;;;;;8.63;3.90;;;;;;;;;;4859604;29;20097;-62
2022/05/21 13:34:04;;;;;;;8.05;4.22;;;;;;;;;;4860484;29;20041;-64
2022/05/21 13:36:32;;;;;;;8.73;3.50;;;;;;;;;;4860476;29;20422;-62
2022/05/21 13:39:00;;;;;;;7.68;3.00;;;;;;;;;;4860075;29;20036;-62
2022/05/21 13:41:30;;;;;;;7.72;3.40;;;;;;;;;;4860571;29;20493;-62
2022/05/21 13:43:58;;;;;;;6.38;2.72;;;;;;;;;;4860383;29;20381;-66
2022/05/21 13:46:25;;;;;;;4.40;2.92;;;;;;;;;;4859761;29;20505;-62
2022/05/21 13:48:53;;;;;;;6.70;2.53;;;;;;;;;;4860269;29;20037;-62
2022/05/21 13:51:22;;;;;;;6.10;3.10;;;;;;;;;;4860789;29;20595;-65
2022/05/21 13:53:50;;;;;;;17.48;3.58;;;;;;;;;;4878135;29;20037;-64
2022/05/21 13:56:22;;;;;;;5.40;2.80;;;;;;;;;;4874460;29;20041;-65
2022/05/21 13:59:02;;;;;;;6.30;2.53;;;;;;;;;;4868745;29;20060;-62
2022/05/21 14:01:36;;;;;;;4.95;2.17;;;;;;;;;;4878405;29;20123;-62
2022/05/21 14:04:10;;;;;;;6.65;2.42;;;;;;;;;;4879240;29;20060;-61
2022/05/21 14:06:46;;;;;;;7.28;3.22;;;;;;;;;;4878355;29;20037;-61
2022/05/21 14:09:22;;;;;;;5.85;2.60;;;;;;;;;;4878743;29;20025;-62
2022/05/21 14:11:55;;;;;;;6.07;2.78;;;;;;;;;;4876679;29;20043;-67
2022/05/21 14:14:24;;;;;;;5.28;2.30;;;;;;;;;;4877611;29;20391;-61
2022/05/21 14:16:52;;;;;;;9.15;2.97;;;;;;;;;;4877905;29;20045;-60
2022/05/21 14:19:18;;;;;;;7.55;2.63;;;;;;;;;;4877223;29;20029;-62
2022/05/21 14:22:05;;;;;;;7.43;2.45;;;;;;;;;;4877596;29;20090;-60
2022/05/21 14:24:31;;;;;;;6.63;2.58;;;;;;;;;;4878460;29;20044;-61
2022/05/21 14:26:59;;;;;;;8.93;2.67;;;;;;;;;;4877432;29;20036;-62
2022/05/21 14:29:31;;;;;;;4.95;2.80;;;;;;;;;;4877244;29;20029;-68
2022/05/21 14:31:57;;;;;;;;;;;;;;;;;;4877818;29;20037;-66
2022/05/21 14:34:23;;;;;;;6.88;2.40;;;;;;;;;;4877256;29;19955;-67
2022/05/21 14:36:51;;;;;;;7.15;2.40;;;;;;;;;;4878170;29;20033;-62
2022/05/21 14:39:17;;;;;;;5.03;1.98;;;;;;;;;;4878075;29;20067;-62
2022/05/21 14:41:45;;;;;;;9.68;3.05;;;;;;;;;;4877660;29;20033;-62
2022/05/21 14:44:14;;;;;;;5.00;2.25;;;;;;;;;;4876583;29;20036;-65
2022/05/21 14:49:25;;;;;;;5.63;2.58;;;;;;;;;;4877619;29;20154;-66
2022/05/21 14:54:39;;;;;;;11.68;2.60;;;;;;;;;;4877447;29;20032;-65
2022/05/21 14:57:05;;;;;;;9.80;2.53;;;;;;;;;;4877498;29;20044;-62
2022/05/21 14:59:32;;;;;;;5.80;2.15;;;;;;;;;;4876856;29;20397;-66
2022/05/21 15:01:58;;;;;;;8.50;2.72;;;;;;;;;;4877180;29;20108;-65
2022/05/21 15:04:24;;;;;;;9.55;2.40;;;;;;;;;;4876940;29;20040;-66
2022/05/21 15:06:51;;;;;;;9.20;2.40;;;;;;;;;;4876488;29;20085;-63
2022/05/21 15:09:17;;;;;;;8.75;2.38;;;;;;;;;;4876625;29;20061;-65
2022/05/21 15:11:43;;;;;;;5.05;2.20;;;;;;;;;;4876970;29;20044;-62
2022/05/21 15:14:10;;;;;;;8.07;2.10;;;;;;;;;;4876528;29;20021;-62
2022/05/21 15:16:36;;;;;;;6.85;2.13;;;;;;;;;;4877189;29;20049;-65
2022/05/21 15:19:03;;;;;;;5.70;1.98;;;;;;;;;;4877090;29;20037;-66
2022/05/21 15:21:30;;;;;;;6.45;2.30;;;;;;;;;;4877304;29;20029;-63
2022/05/21 15:23:56;;;;;;;7.47;1.90;;;;;;;;;;4874392;29;20025;-66
2022/05/21 15:26:25;;;;;;;9.70;1.77;;;;;;;;;;4858283;29;20058;-68
2022/05/21 15:28:52;;;;;;;5.22;1.42;;;;;;;;;;4858134;29;20121;-66
2022/05/21 15:31:18;;;;;;;6.43;1.88;;;;;;;;;;4858306;29;20033;-63
2022/05/21 15:33:44;;;;;;;7.40;1.70;;;;;;;;;;4858137;29;20041;-68